sensor_id;sensor_type;location;lat;lon;timestamp;temperature;humidity
72905;DHT22;61048;52.162;4.516;2023-07-24T00:00:17;22.30;54.60
72905;DHT22;61048;52.162;4.516;2023-07-24T00:02:44;22.30;54.50
72905;DHT22;61048;52.162;4.516;2023-07-24T00:05:11;22.20;54.50
72905;DHT22;61048;52.162;4.516;2023-07-24T00:07:39;22.20;54.60
72905;DHT22;61048;52.162;4.516;2023-07-24T00:10:07;22.20;54.60
72905;DHT22;61048;52.162;4.516;2023-07-24T00:12:34;22.20;54.60
72905;DHT22;61048;52.162;4.516;2023-07-24T00:15:01;22.20;54.60
72905;DHT22;61048;52.162;4.516;2023-07-24T00:17:28;22.20;54.60
72905;DHT22;61048;52.162;4.516;2023-07-24T00:19:55;22.20;54.50
72905;DHT22;61048;52.162;4.516;2023-07-24T00:22:22;22.20;54.60
72905;DHT22;61048;52.162;4.516;2023-07-24T00:24:49;22.20;54.50
72905;DHT22;61048;52.162;4.516;2023-07-24T00:27:18;22.20;54.60
72905;DHT22;61048;52.162;4.516;2023-07-24T00:29:45;22.20;54.40
72905;DHT22;61048;52.162;4.516;2023-07-24T00:32:12;22.20;54.60
72905;DHT22;61048;52.162;4.516;2023-07-24T00:34:39;22.20;54.50
72905;DHT22;61048;52.162;4.516;2023-07-24T00:37:07;22.20;54.60
72905;DHT22;61048;52.162;4.516;2023-07-24T00:39:34;22.20;54.60
72905;DHT22;61048;52.162;4.516;2023-07-24T00:42:01;22.20;54.50
72905;DHT22;61048;52.162;4.516;2023-07-24T00:44:30;22.20;54.60
72905;DHT22;61048;52.162;4.516;2023-07-24T00:46:57;22.20;54.50
72905;DHT22;61048;52.162;4.516;2023-07-24T00:49:24;22.20;54.60
72905;DHT22;61048;52.162;4.516;2023-07-24T00:51:52;22.20;54.50
72905;DHT22;61048;52.162;4.516;2023-07-24T00:54:19;22.20;54.60
72905;DHT22;61048;52.162;4.516;2023-07-24T00:56:48;22.20;54.60
72905;DHT22;61048;52.162;4.516;2023-07-24T00:59:16;22.20;54.60
72905;DHT22;61048;52.162;4.516;2023-07-24T01:01:45;22.10;54.60
72905;DHT22;61048;52.162;4.516;2023-07-24T01:04:13;22.10;54.70
72905;DHT22;61048;52.162;4.516;2023-07-24T01:06:41;22.10;54.60
72905;DHT22;61048;52.162;4.516;2023-07-24T01:09:08;22.10;54.60
72905;DHT22;61048;52.162;4.516;2023-07-24T01:11:38;22.10;54.70
72905;DHT22;61048;52.162;4.516;2023-07-24T01:14:11;22.10;54.70
72905;DHT22;61048;52.162;4.516;2023-07-24T01:16:42;22.10;54.70
72905;DHT22;61048;52.162;4.516;2023-07-24T01:19:19;22.10;54.80
72905;DHT22;61048;52.162;4.516;2023-07-24T01:21:51;22.10;54.80
72905;DHT22;61048;52.162;4.516;2023-07-24T01:24:25;22.10;54.60
72905;DHT22;61048;52.162;4.516;2023-07-24T01:26:58;22.10;54.80
72905;DHT22;61048;52.162;4.516;2023-07-24T01:29:25;22.10;54.70
72905;DHT22;61048;52.162;4.516;2023-07-24T01:31:52;22.10;54.70
72905;DHT22;61048;52.162;4.516;2023-07-24T01:34:19;22.10;54.80
72905;DHT22;61048;52.162;4.516;2023-07-24T01:36:46;22.10;54.70
72905;DHT22;61048;52.162;4.516;2023-07-24T01:39:14;22.10;54.60
72905;DHT22;61048;52.162;4.516;2023-07-24T01:41:41;22.10;54.70
72905;DHT22;61048;52.162;4.516;2023-07-24T01:44:10;22.00;54.80
72905;DHT22;61048;52.162;4.516;2023-07-24T01:46:37;22.10;54.80
72905;DHT22;61048;52.162;4.516;2023-07-24T01:49:04;22.00;54.80
72905;DHT22;61048;52.162;4.516;2023-07-24T01:51:31;22.10;54.90
72905;DHT22;61048;52.162;4.516;2023-07-24T01:53:58;22.00;54.80
72905;DHT22;61048;52.162;4.516;2023-07-24T01:56:25;22.00;54.80
72905;DHT22;61048;52.162;4.516;2023-07-24T01:58:52;22.00;54.80
72905;DHT22;61048;52.162;4.516;2023-07-24T02:01:20;22.00;54.80
72905;DHT22;61048;52.162;4.516;2023-07-24T02:03:47;22.00;54.80
72905;DHT22;61048;52.162;4.516;2023-07-24T02:06:14;22.00;54.90
72905;DHT22;61048;52.162;4.516;2023-07-24T02:08:41;22.00;54.90
72905;DHT22;61048;52.162;4.516;2023-07-24T02:11:14;22.00;54.90
72905;DHT22;61048;52.162;4.516;2023-07-24T02:13:43;22.00;54.90
72905;DHT22;61048;52.162;4.516;2023-07-24T02:16:11;22.00;54.90
72905;DHT22;61048;52.162;4.516;2023-07-24T02:18:42;22.00;54.90
72905;DHT22;61048;52.162;4.516;2023-07-24T02:21:09;22.00;54.90
72905;DHT22;61048;52.162;4.516;2023-07-24T02:23:36;22.00;54.90
72905;DHT22;61048;52.162;4.516;2023-07-24T02:26:03;22.00;55.00
72905;DHT22;61048;52.162;4.516;2023-07-24T02:28:30;22.00;55.00
72905;DHT22;61048;52.162;4.516;2023-07-24T02:30:57;22.00;54.80
72905;DHT22;61048;52.162;4.516;2023-07-24T02:33:25;22.00;54.90
72905;DHT22;61048;52.162;4.516;2023-07-24T02:35:54;22.00;54.80
72905;DHT22;61048;52.162;4.516;2023-07-24T02:38:21;22.00;54.90
72905;DHT22;61048;52.162;4.516;2023-07-24T02:40:48;21.90;54.90
72905;DHT22;61048;52.162;4.516;2023-07-24T02:43:15;21.90;54.90
72905;DHT22;61048;52.162;4.516;2023-07-24T02:45:42;21.90;54.90
72905;DHT22;61048;52.162;4.516;2023-07-24T02:48:09;21.90;54.90
72905;DHT22;61048;52.162;4.516;2023-07-24T02:50:36;21.90;54.90
72905;DHT22;61048;52.162;4.516;2023-07-24T02:53:04;21.90;55.00
72905;DHT22;61048;52.162;4.516;2023-07-24T02:55:31;21.90;55.00
72905;DHT22;61048;52.162;4.516;2023-07-24T02:57:58;21.90;55.00
72905;DHT22;61048;52.162;4.516;2023-07-24T03:00:25;21.90;55.00
72905;DHT22;61048;52.162;4.516;2023-07-24T03:02:52;21.90;55.00
72905;DHT22;61048;52.162;4.516;2023-07-24T03:05:19;21.90;54.90
72905;DHT22;61048;52.162;4.516;2023-07-24T03:07:46;21.90;55.00
72905;DHT22;61048;52.162;4.516;2023-07-24T03:10:15;21.90;55.00
72905;DHT22;61048;52.162;4.516;2023-07-24T03:12:42;21.90;54.90
72905;DHT22;61048;52.162;4.516;2023-07-24T03:15:10;21.90;55.00
72905;DHT22;61048;52.162;4.516;2023-07-24T03:17:37;21.90;55.00
72905;DHT22;61048;52.162;4.516;2023-07-24T03:20:15;21.90;55.00
72905;DHT22;61048;52.162;4.516;2023-07-24T03:22:42;21.90;55.00
72905;DHT22;61048;52.162;4.516;2023-07-24T03:25:10;21.90;55.10
72905;DHT22;61048;52.162;4.516;2023-07-24T03:27:38;21.90;55.00
72905;DHT22;61048;52.162;4.516;2023-07-24T03:30:07;21.80;55.10
72905;DHT22;61048;52.162;4.516;2023-07-24T03:32:34;21.80;55.10
72905;DHT22;61048;52.162;4.516;2023-07-24T03:35:01;21.90;55.00
72905;DHT22;61048;52.162;4.516;2023-07-24T03:37:28;21.80;55.10
72905;DHT22;61048;52.162;4.516;2023-07-24T03:39:55;21.80;55.00
72905;DHT22;61048;52.162;4.516;2023-07-24T03:42:26;21.90;55.00
72905;DHT22;61048;52.162;4.516;2023-07-24T03:44:55;21.80;55.10
72905;DHT22;61048;52.162;4.516;2023-07-24T03:47:22;21.80;55.10
72905;DHT22;61048;52.162;4.516;2023-07-24T03:49:49;21.80;55.00
72905;DHT22;61048;52.162;4.516;2023-07-24T03:52:17;21.80;55.00
72905;DHT22;61048;52.162;4.516;2023-07-24T03:54:44;21.80;55.10
72905;DHT22;61048;52.162;4.516;2023-07-24T03:57:11;21.80;55.10
72905;DHT22;61048;52.162;4.516;2023-07-24T03:59:38;21.80;55.10
72905;DHT22;61048;52.162;4.516;2023-07-24T04:02:07;21.80;55.30
72905;DHT22;61048;52.162;4.516;2023-07-24T04:04:34;21.80;55.00
72905;DHT22;61048;52.162;4.516;2023-07-24T04:07:01;21.80;55.10
72905;DHT22;61048;52.162;4.516;2023-07-24T04:09:28;21.80;55.10
72905;DHT22;61048;52.162;4.516;2023-07-24T04:11:55;21.80;55.10
72905;DHT22;61048;52.162;4.516;2023-07-24T04:14:22;21.80;55.10
72905;DHT22;61048;52.162;4.516;2023-07-24T04:16:49;21.80;55.10
72905;DHT22;61048;52.162;4.516;2023-07-24T04:19:17;21.80;55.10
72905;DHT22;61048;52.162;4.516;2023-07-24T04:21:44;21.80;55.00
72905;DHT22;61048;52.162;4.516;2023-07-24T04:24:11;21.80;55.10
72905;DHT22;61048;52.162;4.516;2023-07-24T04:26:38;21.80;55.10
72905;DHT22;61048;52.162;4.516;2023-07-24T04:29:06;21.80;55.10
72905;DHT22;61048;52.162;4.516;2023-07-24T04:31:33;21.80;55.10
72905;DHT22;61048;52.162;4.516;2023-07-24T04:34:00;21.80;55.10
72905;DHT22;61048;52.162;4.516;2023-07-24T04:36:29;21.80;55.20
72905;DHT22;61048;52.162;4.516;2023-07-24T04:38:56;21.80;55.30
72905;DHT22;61048;52.162;4.516;2023-07-24T04:41:23;21.80;55.10
72905;DHT22;61048;52.162;4.516;2023-07-24T04:43:50;21.70;55.20
72905;DHT22;61048;52.162;4.516;2023-07-24T04:46:17;21.80;55.10
72905;DHT22;61048;52.162;4.516;2023-07-24T04:48:44;21.70;55.10
72905;DHT22;61048;52.162;4.516;2023-07-24T04:51:11;21.80;55.20
72905;DHT22;61048;52.162;4.516;2023-07-24T04:53:39;21.70;55.10
72905;DHT22;61048;52.162;4.516;2023-07-24T04:56:06;21.70;55.10
72905;DHT22;61048;52.162;4.516;2023-07-24T04:58:33;21.70;55.10
72905;DHT22;61048;52.162;4.516;2023-07-24T05:01:02;21.80;55.20
72905;DHT22;61048;52.162;4.516;2023-07-24T05:03:35;21.80;55.00
72905;DHT22;61048;52.162;4.516;2023-07-24T05:06:02;21.80;55.20
72905;DHT22;61048;52.162;4.516;2023-07-24T05:08:29;21.80;55.20
72905;DHT22;61048;52.162;4.516;2023-07-24T05:10:57;21.80;55.20
72905;DHT22;61048;52.162;4.516;2023-07-24T05:13:24;21.80;55.30
72905;DHT22;61048;52.162;4.516;2023-07-24T05:15:51;21.80;55.30
72905;DHT22;61048;52.162;4.516;2023-07-24T05:18:18;21.80;55.10
72905;DHT22;61048;52.162;4.516;2023-07-24T05:20:46;21.70;55.10
72905;DHT22;61048;52.162;4.516;2023-07-24T05:23:14;21.80;55.10
72905;DHT22;61048;52.162;4.516;2023-07-24T05:25:41;21.80;55.10
72905;DHT22;61048;52.162;4.516;2023-07-24T05:28:10;21.80;55.10
72905;DHT22;61048;52.162;4.516;2023-07-24T05:30:37;21.80;55.10
72905;DHT22;61048;52.162;4.516;2023-07-24T05:33:06;21.80;55.20
72905;DHT22;61048;52.162;4.516;2023-07-24T05:35:33;21.80;55.10
72905;DHT22;61048;52.162;4.516;2023-07-24T05:38:00;21.80;55.20
72905;DHT22;61048;52.162;4.516;2023-07-24T05:40:27;21.80;55.30
72905;DHT22;61048;52.162;4.516;2023-07-24T05:42:54;21.70;55.20
72905;DHT22;61048;52.162;4.516;2023-07-24T05:45:22;21.70;55.40
72905;DHT22;61048;52.162;4.516;2023-07-24T05:47:49;21.80;55.40
72905;DHT22;61048;52.162;4.516;2023-07-24T05:50:16;21.80;55.40
72905;DHT22;61048;52.162;4.516;2023-07-24T05:52:43;21.80;55.30
72905;DHT22;61048;52.162;4.516;2023-07-24T05:55:10;21.80;55.40
72905;DHT22;61048;52.162;4.516;2023-07-24T05:57:37;21.80;55.50
72905;DHT22;61048;52.162;4.516;2023-07-24T06:00:05;21.80;55.50
72905;DHT22;61048;52.162;4.516;2023-07-24T06:02:34;21.80;55.40
72905;DHT22;61048;52.162;4.516;2023-07-24T06:05:01;21.80;55.40
72905;DHT22;61048;52.162;4.516;2023-07-24T06:07:28;21.80;55.60
72905;DHT22;61048;52.162;4.516;2023-07-24T06:09:55;21.80;55.60
72905;DHT22;61048;52.162;4.516;2023-07-24T06:12:22;21.80;55.60
72905;DHT22;61048;52.162;4.516;2023-07-24T06:14:49;21.80;55.60
72905;DHT22;61048;52.162;4.516;2023-07-24T06:17:16;21.80;55.60
72905;DHT22;61048;52.162;4.516;2023-07-24T06:19:45;21.80;55.70
72905;DHT22;61048;52.162;4.516;2023-07-24T06:22:12;21.80;55.70
72905;DHT22;61048;52.162;4.516;2023-07-24T06:24:39;21.80;55.60
72905;DHT22;61048;52.162;4.516;2023-07-24T06:27:06;21.80;55.70
72905;DHT22;61048;52.162;4.516;2023-07-24T06:29:34;21.80;55.70
72905;DHT22;61048;52.162;4.516;2023-07-24T06:32:02;21.80;55.70
72905;DHT22;61048;52.162;4.516;2023-07-24T06:34:29;21.80;55.70
72905;DHT22;61048;52.162;4.516;2023-07-24T06:36:57;21.80;55.60
72905;DHT22;61048;52.162;4.516;2023-07-24T06:39:24;21.80;55.60
72905;DHT22;61048;52.162;4.516;2023-07-24T06:41:52;21.80;55.60
72905;DHT22;61048;52.162;4.516;2023-07-24T06:44:19;21.80;55.50
72905;DHT22;61048;52.162;4.516;2023-07-24T06:46:46;21.80;55.50
72905;DHT22;61048;52.162;4.516;2023-07-24T06:49:13;21.80;55.50
72905;DHT22;61048;52.162;4.516;2023-07-24T06:51:40;21.80;55.70
72905;DHT22;61048;52.162;4.516;2023-07-24T06:54:08;21.80;55.60
72905;DHT22;61048;52.162;4.516;2023-07-24T06:56:35;21.90;55.60
72905;DHT22;61048;52.162;4.516;2023-07-24T06:59:02;21.90;55.70
72905;DHT22;61048;52.162;4.516;2023-07-24T07:01:29;21.90;55.70
72905;DHT22;61048;52.162;4.516;2023-07-24T07:03:56;21.90;55.80
72905;DHT22;61048;52.162;4.516;2023-07-24T07:06:23;21.90;55.80
72905;DHT22;61048;52.162;4.516;2023-07-24T07:08:50;21.90;55.80
72905;DHT22;61048;52.162;4.516;2023-07-24T07:11:18;21.90;55.80
72905;DHT22;61048;52.162;4.516;2023-07-24T07:13:45;22.00;55.90
72905;DHT22;61048;52.162;4.516;2023-07-24T07:16:12;22.00;55.70
72905;DHT22;61048;52.162;4.516;2023-07-24T07:18:40;22.00;55.70
72905;DHT22;61048;52.162;4.516;2023-07-24T07:21:07;22.00;55.90
72905;DHT22;61048;52.162;4.516;2023-07-24T07:23:35;22.00;56.00
72905;DHT22;61048;52.162;4.516;2023-07-24T07:26:02;22.00;56.20
72905;DHT22;61048;52.162;4.516;2023-07-24T07:28:30;22.10;56.00
72905;DHT22;61048;52.162;4.516;2023-07-24T07:30:57;22.10;55.90
72905;DHT22;61048;52.162;4.516;2023-07-24T07:33:24;22.10;55.80
72905;DHT22;61048;52.162;4.516;2023-07-24T07:35:51;22.10;55.80
72905;DHT22;61048;52.162;4.516;2023-07-24T07:38:18;22.20;55.90
72905;DHT22;61048;52.162;4.516;2023-07-24T07:40:48;22.20;56.00
72905;DHT22;61048;52.162;4.516;2023-07-24T07:43:15;22.20;55.90
72905;DHT22;61048;52.162;4.516;2023-07-24T07:45:46;22.30;55.70
72905;DHT22;61048;52.162;4.516;2023-07-24T07:48:13;22.30;55.70
72905;DHT22;61048;52.162;4.516;2023-07-24T07:50:40;22.30;55.60
72905;DHT22;61048;52.162;4.516;2023-07-24T07:53:07;22.40;55.50
72905;DHT22;61048;52.162;4.516;2023-07-24T07:55:34;22.40;55.50
72905;DHT22;61048;52.162;4.516;2023-07-24T07:58:01;22.40;55.40
72905;DHT22;61048;52.162;4.516;2023-07-24T08:00:28;22.50;55.30
72905;DHT22;61048;52.162;4.516;2023-07-24T08:02:57;22.50;55.30
72905;DHT22;61048;52.162;4.516;2023-07-24T08:05:24;22.50;55.10
72905;DHT22;61048;52.162;4.516;2023-07-24T08:07:51;22.50;55.20
72905;DHT22;61048;52.162;4.516;2023-07-24T08:10:18;22.60;55.10
72905;DHT22;61048;52.162;4.516;2023-07-24T08:12:45;22.60;55.20
72905;DHT22;61048;52.162;4.516;2023-07-24T08:15:13;22.60;55.20
72905;DHT22;61048;52.162;4.516;2023-07-24T08:17:40;22.60;55.30
72905;DHT22;61048;52.162;4.516;2023-07-24T08:20:09;22.60;55.20
72905;DHT22;61048;52.162;4.516;2023-07-24T08:22:36;22.70;55.10
72905;DHT22;61048;52.162;4.516;2023-07-24T08:25:04;22.70;55.10
72905;DHT22;61048;52.162;4.516;2023-07-24T08:27:32;22.80;55.00
72905;DHT22;61048;52.162;4.516;2023-07-24T08:29:59;22.80;54.90
72905;DHT22;61048;52.162;4.516;2023-07-24T08:32:28;22.80;54.90
72905;DHT22;61048;52.162;4.516;2023-07-24T08:34:56;22.80;54.90
72905;DHT22;61048;52.162;4.516;2023-07-24T08:37:24;22.80;54.90
72905;DHT22;61048;52.162;4.516;2023-07-24T08:39:51;22.80;54.80
72905;DHT22;61048;52.162;4.516;2023-07-24T08:42:18;22.80;54.80
72905;DHT22;61048;52.162;4.516;2023-07-24T08:44:45;22.80;54.90
72905;DHT22;61048;52.162;4.516;2023-07-24T08:47:13;22.80;54.90
72905;DHT22;61048;52.162;4.516;2023-07-24T08:49:42;22.80;55.00
72905;DHT22;61048;52.162;4.516;2023-07-24T08:52:10;22.80;54.90
72905;DHT22;61048;52.162;4.516;2023-07-24T08:54:39;22.90;54.90
72905;DHT22;61048;52.162;4.516;2023-07-24T08:57:07;22.90;54.90
72905;DHT22;61048;52.162;4.516;2023-07-24T08:59:34;22.90;54.90
72905;DHT22;61048;52.162;4.516;2023-07-24T09:02:01;22.90;54.90
72905;DHT22;61048;52.162;4.516;2023-07-24T09:04:29;22.90;54.90
72905;DHT22;61048;52.162;4.516;2023-07-24T09:06:57;22.90;54.90
72905;DHT22;61048;52.162;4.516;2023-07-24T09:09:29;22.90;54.90
72905;DHT22;61048;52.162;4.516;2023-07-24T09:11:58;22.90;54.90
72905;DHT22;61048;52.162;4.516;2023-07-24T09:14:26;22.90;54.80
72905;DHT22;61048;52.162;4.516;2023-07-24T09:17:03;22.90;54.80
72905;DHT22;61048;52.162;4.516;2023-07-24T09:19:30;22.90;54.80
72905;DHT22;61048;52.162;4.516;2023-07-24T09:22:08;23.00;54.80
72905;DHT22;61048;52.162;4.516;2023-07-24T09:24:35;23.00;54.80
72905;DHT22;61048;52.162;4.516;2023-07-24T09:27:07;23.00;54.70
72905;DHT22;61048;52.162;4.516;2023-07-24T09:29:35;23.00;54.70
72905;DHT22;61048;52.162;4.516;2023-07-24T09:32:02;23.00;54.70
72905;DHT22;61048;52.162;4.516;2023-07-24T09:34:32;23.00;54.70
72905;DHT22;61048;52.162;4.516;2023-07-24T09:36:59;23.00;54.70
72905;DHT22;61048;52.162;4.516;2023-07-24T09:39:27;23.00;54.80
72905;DHT22;61048;52.162;4.516;2023-07-24T09:42:02;23.00;54.70
72905;DHT22;61048;52.162;4.516;2023-07-24T09:44:32;23.10;54.70
72905;DHT22;61048;52.162;4.516;2023-07-24T09:46:59;23.10;54.60
72905;DHT22;61048;52.162;4.516;2023-07-24T09:49:26;23.10;54.60
72905;DHT22;61048;52.162;4.516;2023-07-24T09:51:54;23.10;54.70
72905;DHT22;61048;52.162;4.516;2023-07-24T09:54:25;23.10;54.70
72905;DHT22;61048;52.162;4.516;2023-07-24T09:56:57;23.10;54.60
72905;DHT22;61048;52.162;4.516;2023-07-24T09:59:27;23.10;54.70
72905;DHT22;61048;52.162;4.516;2023-07-24T10:01:57;23.10;54.80
72905;DHT22;61048;52.162;4.516;2023-07-24T10:04:24;23.00;54.70
72905;DHT22;61048;52.162;4.516;2023-07-24T10:06:51;23.10;54.80
72905;DHT22;61048;52.162;4.516;2023-07-24T10:09:19;23.10;54.70
72905;DHT22;61048;52.162;4.516;2023-07-24T10:11:48;23.10;54.80
72905;DHT22;61048;52.162;4.516;2023-07-24T10:14:15;23.10;54.70
72905;DHT22;61048;52.162;4.516;2023-07-24T10:16:45;23.10;54.80
72905;DHT22;61048;52.162;4.516;2023-07-24T10:19:16;23.10;54.80
72905;DHT22;61048;52.162;4.516;2023-07-24T10:21:47;23.10;54.80
72905;DHT22;61048;52.162;4.516;2023-07-24T10:24:14;23.10;54.90
72905;DHT22;61048;52.162;4.516;2023-07-24T10:26:42;23.20;54.90
72905;DHT22;61048;52.162;4.516;2023-07-24T10:29:09;23.20;54.80
72905;DHT22;61048;52.162;4.516;2023-07-24T10:31:36;23.20;54.80
72905;DHT22;61048;52.162;4.516;2023-07-24T10:34:06;23.20;54.80
72905;DHT22;61048;52.162;4.516;2023-07-24T10:36:36;23.20;54.90
72905;DHT22;61048;52.162;4.516;2023-07-24T10:39:13;23.20;54.80
72905;DHT22;61048;52.162;4.516;2023-07-24T10:41:40;23.20;54.80
72905;DHT22;61048;52.162;4.516;2023-07-24T10:44:07;23.20;54.80
72905;DHT22;61048;52.162;4.516;2023-07-24T10:46:38;23.20;54.80
72905;DHT22;61048;52.162;4.516;2023-07-24T10:49:06;23.20;54.80
72905;DHT22;61048;52.162;4.516;2023-07-24T10:51:34;23.20;54.80
72905;DHT22;61048;52.162;4.516;2023-07-24T10:54:03;23.20;54.80
72905;DHT22;61048;52.162;4.516;2023-07-24T10:56:30;23.20;54.80
72905;DHT22;61048;52.162;4.516;2023-07-24T10:59:02;23.20;54.80
72905;DHT22;61048;52.162;4.516;2023-07-24T11:01:31;23.20;54.80
72905;DHT22;61048;52.162;4.516;2023-07-24T11:03:58;23.30;54.80
72905;DHT22;61048;52.162;4.516;2023-07-24T11:06:25;23.30;54.80
72905;DHT22;61048;52.162;4.516;2023-07-24T11:08:54;23.30;54.80
72905;DHT22;61048;52.162;4.516;2023-07-24T11:11:27;23.30;54.80
72905;DHT22;61048;52.162;4.516;2023-07-24T11:13:54;23.30;54.80
72905;DHT22;61048;52.162;4.516;2023-07-24T11:16:21;23.30;54.90
72905;DHT22;61048;52.162;4.516;2023-07-24T11:18:49;23.30;54.90
72905;DHT22;61048;52.162;4.516;2023-07-24T11:21:17;23.30;54.90
72905;DHT22;61048;52.162;4.516;2023-07-24T11:23:46;23.30;54.90
72905;DHT22;61048;52.162;4.516;2023-07-24T11:26:15;23.30;54.90
72905;DHT22;61048;52.162;4.516;2023-07-24T11:28:42;23.40;54.90
72905;DHT22;61048;52.162;4.516;2023-07-24T11:31:09;23.40;54.90
72905;DHT22;61048;52.162;4.516;2023-07-24T11:33:37;23.40;54.90
72905;DHT22;61048;52.162;4.516;2023-07-24T11:36:04;23.40;54.90
72905;DHT22;61048;52.162;4.516;2023-07-24T11:38:31;23.40;54.90
72905;DHT22;61048;52.162;4.516;2023-07-24T11:40:58;23.40;54.90
72905;DHT22;61048;52.162;4.516;2023-07-24T11:43:27;23.40;54.90
72905;DHT22;61048;52.162;4.516;2023-07-24T11:45:54;23.40;54.80
72905;DHT22;61048;52.162;4.516;2023-07-24T11:48:22;23.50;54.80
72905;DHT22;61048;52.162;4.516;2023-07-24T11:50:51;23.50;54.80
72905;DHT22;61048;52.162;4.516;2023-07-24T11:53:20;23.50;54.70
72905;DHT22;61048;52.162;4.516;2023-07-24T11:55:48;23.50;54.70
72905;DHT22;61048;52.162;4.516;2023-07-24T11:58:16;23.50;54.60
72905;DHT22;61048;52.162;4.516;2023-07-24T12:00:45;23.50;54.60
72905;DHT22;61048;52.162;4.516;2023-07-24T12:03:12;23.50;54.60
72905;DHT22;61048;52.162;4.516;2023-07-24T12:05:40;23.50;54.60
72905;DHT22;61048;52.162;4.516;2023-07-24T12:08:07;23.50;54.50
72905;DHT22;61048;52.162;4.516;2023-07-24T12:10:36;23.50;54.60
72905;DHT22;61048;52.162;4.516;2023-07-24T12:13:03;23.60;54.50
72905;DHT22;61048;52.162;4.516;2023-07-24T12:15:30;23.60;54.50
72905;DHT22;61048;52.162;4.516;2023-07-24T12:18:00;23.60;54.50
72905;DHT22;61048;52.162;4.516;2023-07-24T12:20:27;23.60;54.50
72905;DHT22;61048;52.162;4.516;2023-07-24T12:22:55;23.60;54.50
72905;DHT22;61048;52.162;4.516;2023-07-24T12:25:22;23.60;54.50
72905;DHT22;61048;52.162;4.516;2023-07-24T12:27:49;23.60;54.40
72905;DHT22;61048;52.162;4.516;2023-07-24T12:30:16;23.60;54.40
72905;DHT22;61048;52.162;4.516;2023-07-24T12:32:43;23.60;54.40
72905;DHT22;61048;52.162;4.516;2023-07-24T12:35:11;23.60;54.30
72905;DHT22;61048;52.162;4.516;2023-07-24T12:37:38;23.70;54.20
72905;DHT22;61048;52.162;4.516;2023-07-24T12:40:07;23.70;54.20
72905;DHT22;61048;52.162;4.516;2023-07-24T12:42:34;23.70;54.20
72905;DHT22;61048;52.162;4.516;2023-07-24T12:45:01;23.70;54.10
72905;DHT22;61048;52.162;4.516;2023-07-24T12:47:29;23.70;54.10
72905;DHT22;61048;52.162;4.516;2023-07-24T12:49:56;23.70;54.10
72905;DHT22;61048;52.162;4.516;2023-07-24T12:52:26;23.70;54.10
72905;DHT22;61048;52.162;4.516;2023-07-24T12:54:53;23.70;54.00
72905;DHT22;61048;52.162;4.516;2023-07-24T12:57:20;23.70;54.10
72905;DHT22;61048;52.162;4.516;2023-07-24T12:59:47;23.70;54.00
72905;DHT22;61048;52.162;4.516;2023-07-24T13:02:14;23.70;54.00
72905;DHT22;61048;52.162;4.516;2023-07-24T13:04:41;23.80;54.00
72905;DHT22;61048;52.162;4.516;2023-07-24T13:07:08;23.80;54.00
72905;DHT22;61048;52.162;4.516;2023-07-24T13:09:36;23.70;53.90
72905;DHT22;61048;52.162;4.516;2023-07-24T13:12:04;23.70;54.00
72905;DHT22;61048;52.162;4.516;2023-07-24T13:14:31;23.80;54.00
72905;DHT22;61048;52.162;4.516;2023-07-24T13:16:58;23.80;53.90
72905;DHT22;61048;52.162;4.516;2023-07-24T13:19:25;23.80;53.90
72905;DHT22;61048;52.162;4.516;2023-07-24T13:21:52;23.80;53.90
72905;DHT22;61048;52.162;4.516;2023-07-24T13:24:19;23.80;53.90
72905;DHT22;61048;52.162;4.516;2023-07-24T13:26:47;23.80;53.80
72905;DHT22;61048;52.162;4.516;2023-07-24T13:29:15;23.80;53.80
72905;DHT22;61048;52.162;4.516;2023-07-24T13:31:42;23.80;53.80
72905;DHT22;61048;52.162;4.516;2023-07-24T13:34:08;23.80;53.70
72905;DHT22;61048;52.162;4.516;2023-07-24T13:36:35;23.80;53.70
72905;DHT22;61048;52.162;4.516;2023-07-24T13:39:02;23.80;53.70
72905;DHT22;61048;52.162;4.516;2023-07-24T13:41:30;23.80;53.70
72905;DHT22;61048;52.162;4.516;2023-07-24T13:43:58;23.80;53.70
72905;DHT22;61048;52.162;4.516;2023-07-24T13:46:25;23.80;53.70
72905;DHT22;61048;52.162;4.516;2023-07-24T13:48:52;23.80;53.70
72905;DHT22;61048;52.162;4.516;2023-07-24T13:51:19;23.80;53.60
72905;DHT22;61048;52.162;4.516;2023-07-24T13:53:46;23.80;53.70
72905;DHT22;61048;52.162;4.516;2023-07-24T13:56:15;23.80;53.70
72905;DHT22;61048;52.162;4.516;2023-07-24T13:58:42;23.80;53.70
72905;DHT22;61048;52.162;4.516;2023-07-24T14:01:10;23.80;53.60
72905;DHT22;61048;52.162;4.516;2023-07-24T14:03:37;23.80;53.60
72905;DHT22;61048;52.162;4.516;2023-07-24T14:06:04;23.80;53.60
72905;DHT22;61048;52.162;4.516;2023-07-24T14:08:31;23.80;53.60
72905;DHT22;61048;52.162;4.516;2023-07-24T14:10:58;23.80;53.60
72905;DHT22;61048;52.162;4.516;2023-07-24T14:13:25;23.80;53.60
72905;DHT22;61048;52.162;4.516;2023-07-24T14:15:52;23.80;53.60
72905;DHT22;61048;52.162;4.516;2023-07-24T14:18:20;23.80;53.60
72905;DHT22;61048;52.162;4.516;2023-07-24T14:20:47;23.80;53.50
72905;DHT22;61048;52.162;4.516;2023-07-24T14:23:14;23.80;53.50
72905;DHT22;61048;52.162;4.516;2023-07-24T14:25:41;23.80;53.60
72905;DHT22;61048;52.162;4.516;2023-07-24T14:28:08;23.70;53.50
72905;DHT22;61048;52.162;4.516;2023-07-24T14:30:35;23.70;53.50
72905;DHT22;61048;52.162;4.516;2023-07-24T14:33:02;23.70;53.50
72905;DHT22;61048;52.162;4.516;2023-07-24T14:35:30;23.70;53.50
72905;DHT22;61048;52.162;4.516;2023-07-24T14:37:57;23.70;53.50
72905;DHT22;61048;52.162;4.516;2023-07-24T14:40:24;23.70;53.50
72905;DHT22;61048;52.162;4.516;2023-07-24T14:42:51;23.70;53.50
72905;DHT22;61048;52.162;4.516;2023-07-24T14:45:18;23.70;53.50
72905;DHT22;61048;52.162;4.516;2023-07-24T14:47:45;23.70;53.40
72905;DHT22;61048;52.162;4.516;2023-07-24T14:50:12;23.70;53.40
72905;DHT22;61048;52.162;4.516;2023-07-24T14:52:40;23.70;53.40
72905;DHT22;61048;52.162;4.516;2023-07-24T14:55:07;23.70;53.30
72905;DHT22;61048;52.162;4.516;2023-07-24T14:57:35;23.70;53.30
72905;DHT22;61048;52.162;4.516;2023-07-24T15:00:02;23.70;53.40
72905;DHT22;61048;52.162;4.516;2023-07-24T15:02:29;23.70;53.30
72905;DHT22;61048;52.162;4.516;2023-07-24T15:04:58;23.70;53.30
72905;DHT22;61048;52.162;4.516;2023-07-24T15:07:25;23.70;53.30
72905;DHT22;61048;52.162;4.516;2023-07-24T15:09:54;23.60;53.20
72905;DHT22;61048;52.162;4.516;2023-07-24T15:12:21;23.70;53.20
72905;DHT22;61048;52.162;4.516;2023-07-24T15:14:48;23.60;53.10
72905;DHT22;61048;52.162;4.516;2023-07-24T15:17:16;23.60;53.10
72905;DHT22;61048;52.162;4.516;2023-07-24T15:19:43;23.60;53.10
72905;DHT22;61048;52.162;4.516;2023-07-24T15:22:10;23.60;53.00
72905;DHT22;61048;52.162;4.516;2023-07-24T15:24:37;23.60;53.00
72905;DHT22;61048;52.162;4.516;2023-07-24T15:27:07;23.60;53.00
72905;DHT22;61048;52.162;4.516;2023-07-24T15:29:34;23.60;53.00
72905;DHT22;61048;52.162;4.516;2023-07-24T15:32:01;23.60;53.00